Time;durP1;ratioP1;P1;durP2;ratioP2;P2;SDS_P1;SDS_P2;PMS_P1;PMS_P2;Temp;Humidity;BMP_temperature;BMP_pressure;BME280_temperature;BME280_humidity;BME280_pressure;Samples;Min_cycle;Max_cycle;Signal;HPM_P1;HPM_P2
2023/05/25 00:02:14;;;;;;;13.68;3.08;;;;;;;12.34;100.00;102582.03;5085396;28;20417;-48
2023/05/25 00:04:40;;;;;;;23.13;4.03;;;;;;;12.30;100.00;102586.91;5076471;28;20054;-46
2023/05/25 00:07:05;;;;;;;17.17;4.20;;;;;;;12.35;100.00;102583.75;5078095;28;20113;-48
2023/05/25 00:09:31;;;;;;;20.40;3.70;;;;;;;12.33;100.00;102591.16;5071628;28;20071;-49
2023/05/25 00:11:58;;;;;;;12.82;3.45;;;;;;;12.28;100.00;102588.06;5081057;28;20028;-45
2023/05/25 00:14:23;;;;;;;15.90;4.10;;;;;;;12.26;100.00;102590.03;5076653;28;20554;-49
2023/05/25 00:16:50;;;;;;;15.68;4.28;;;;;;;12.19;100.00;102597.03;5079602;28;20166;-46
2023/05/25 00:19:17;;;;;;;21.65;4.13;;;;;;;12.14;100.00;102602.03;5084563;28;20055;-45
2023/05/25 00:21:44;;;;;;;13.90;3.73;;;;;;;12.14;100.00;102597.50;5077430;28;20036;-45
2023/05/25 00:24:10;;;;;;;17.85;4.40;;;;;;;12.08;100.00;102592.69;5070240;28;20446;-49
2023/05/25 00:26:35;;;;;;;24.38;4.45;;;;;;;12.03;100.00;102601.25;5078811;28;20090;-46
2023/05/25 00:29:00;;;;;;;20.58;4.65;;;;;;;12.00;100.00;102604.22;5075973;28;20035;-46
2023/05/25 00:31:26;;;;;;;21.23;4.65;;;;;;;12.04;100.00;102594.84;5078239;28;20021;-47
2023/05/25 00:33:52;;;;;;;19.38;5.20;;;;;;;12.02;100.00;102604.94;5071162;28;20024;-47
2023/05/25 00:36:17;;;;;;;16.73;5.70;;;;;;;12.01;100.00;102594.31;5083573;28;20028;-47
2023/05/25 00:38:42;;;;;;;28.30;5.50;;;;;;;11.92;100.00;102601.41;5089834;28;20034;-48
2023/05/25 00:41:08;;;;;;;17.55;5.43;;;;;;;11.85;100.00;102605.69;5083222;28;20032;-46
2023/05/25 00:43:34;;;;;;;24.77;7.03;;;;;;;11.84;100.00;102604.81;5084096;28;20028;-48
2023/05/25 00:45:59;;;;;;;21.85;6.28;;;;;;;11.83;100.00;102605.81;5070921;28;20115;-47
2023/05/25 00:48:26;;;;;;;30.70;6.18;;;;;;;11.84;100.00;102614.75;5073603;28;20055;-46
2023/05/25 00:50:53;;;;;;;22.35;6.20;;;;;;;11.85;100.00;102605.69;5085303;28;20034;-47
2023/05/25 00:53:20;;;;;;;20.75;6.57;;;;;;;11.82;100.00;102612.22;5069806;28;20471;-45
2023/05/25 00:55:57;;;;;;;19.77;6.85;;;;;;;11.78;100.00;102607.28;5070176;28;20028;-44
2023/05/25 00:58:26;;;;;;;19.67;6.22;;;;;;;11.77;100.00;102609.13;5073203;28;20028;-46
2023/05/25 01:00:55;;;;;;;18.13;7.00;;;;;;;11.68;100.00;102611.84;5072599;28;20086;-47
2023/05/25 01:03:21;;;;;;;28.17;8.13;;;;;;;11.64;100.00;102620.22;5069486;28;20032;-47
2023/05/25 01:05:47;;;;;;;29.05;8.20;;;;;;;11.68;100.00;102625.31;5074098;28;20463;-50
2023/05/25 01:08:13;;;;;;;25.85;7.47;;;;;;;11.61;100.00;102625.91;5082291;28;20395;-46
2023/05/25 01:10:40;;;;;;;30.60;8.70;;;;;;;11.60;100.00;102621.50;5073168;28;20107;-44
2023/05/25 01:13:08;;;;;;;33.63;8.30;;;;;;;11.60;100.00;102631.44;5090879;28;20434;-46
2023/05/25 01:15:33;;;;;;;19.85;7.88;;;;;;;11.67;100.00;102626.34;5088838;28;20495;-47
2023/05/25 01:17:59;;;;;;;31.85;8.65;;;;;;;11.65;100.00;102630.00;5083369;28;20112;-49
2023/05/25 01:20:26;;;;;;;28.65;8.13;;;;;;;11.61;100.00;102633.13;5073053;28;20064;-47
2023/05/25 01:22:59;;;;;;;28.00;8.85;;;;;;;11.56;100.00;102636.28;5075396;28;20051;-45
2023/05/25 01:25:35;;;;;;;28.00;8.73;;;;;;;11.49;100.00;102634.31;5074043;28;20044;-46
2023/05/25 01:28:07;;;;;;;30.75;8.60;;;;;;;11.47;100.00;102639.81;5068198;28;20406;-48
2023/05/25 01:30:34;;;;;;;31.55;9.00;;;;;;;11.51;100.00;102633.16;5071133;28;20024;-46
2023/05/25 01:33:00;;;;;;;30.58;8.32;;;;;;;11.52;100.00;102634.00;5081688;28;20390;-45
2023/05/25 01:35:26;;;;;;;26.98;8.23;;;;;;;11.54;100.00;102626.63;5081033;28;20027;-46
2023/05/25 01:37:51;;;;;;;26.08;7.68;;;;;;;11.47;100.00;102631.75;5056860;28;20060;-44
2023/05/25 01:40:17;;;;;;;19.92;7.38;;;;;;;11.49;100.00;102645.94;5088247;28;20072;-46
2023/05/25 01:42:42;;;;;;;22.77;7.15;;;;;;;11.45;100.00;102636.41;5089283;28;20024;-45
2023/05/25 01:45:08;;;;;;;29.60;7.75;;;;;;;11.37;100.00;102636.28;5089930;28;20036;-47
2023/05/25 01:48:08;;;;;;;30.55;6.75;;;;;;;11.39;100.00;102643.25;5082441;28;20405;-45
2023/05/25 01:50:44;;;;;;;25.75;6.85;;;;;;;11.31;100.00;102642.25;5089207;28;20027;-46
2023/05/25 01:53:18;;;;;;;27.75;7.43;;;;;;;11.35;100.00;102643.69;5089654;28;20119;-48
2023/05/25 01:55:54;;;;;;;26.27;7.38;;;;;;;11.29;100.00;102642.38;5082352;28;20131;-48
2023/05/25 01:58:20;;;;;;;23.75;7.75;;;;;;;11.32;100.00;102650.22;5086469;28;20382;-48
2023/05/25 02:00:47;;;;;;;32.45;8.00;;;;;;;11.32;100.00;102643.94;5086211;28;20032;-48
2023/05/25 02:03:12;;;;;;;23.25;7.10;;;;;;;11.30;100.00;102645.97;5084513;28;20085;-48
2023/05/25 02:05:40;;;;;;;22.80;7.65;;;;;;;11.28;100.00;102650.63;5083992;28;20028;-51
2023/05/25 02:08:05;;;;;;;28.05;7.55;;;;;;;11.23;100.00;102651.06;5083698;28;20042;-49
2023/05/25 02:10:31;;;;;;;30.05;7.60;;;;;;;11.20;100.00;102660.28;5078103;28;20071;-48
2023/05/25 02:12:56;;;;;;;32.17;7.78;;;;;;;11.17;100.00;102652.47;5069875;28;20044;-48
2023/05/25 02:15:22;;;;;;;25.25;7.20;;;;;;;11.10;100.00;102662.09;5083936;28;20100;-47
2023/05/25 02:17:47;;;;;;;24.92;8.57;;;;;;;11.12;100.00;102664.69;5056670;28;20075;-46
2023/05/25 02:20:12;;;;;;;34.53;7.80;;;;;;;11.09;100.00;102659.56;5069400;28;20032;-48
2023/05/25 02:22:38;;;;;;;20.45;7.45;;;;;;;11.10;100.00;102666.66;5069558;28;20044;-48
2023/05/25 02:25:04;;;;;;;21.45;7.25;;;;;;;11.04;100.00;102661.84;5068982;28;20559;-49
2023/05/25 02:27:29;;;;;;;26.27;7.97;;;;;;;10.99;100.00;102659.56;5070897;28;20477;-46
2023/05/25 02:29:55;;;;;;;25.50;8.25;;;;;;;10.94;100.00;102669.91;5085192;28;20041;-46
2023/05/25 02:32:21;;;;;;;29.58;8.90;;;;;;;10.92;100.00;102671.88;5068093;28;20029;-45
2023/05/25 02:34:46;;;;;;;18.48;7.47;;;;;;;10.95;100.00;102679.66;5083480;28;20024;-47
2023/05/25 02:37:12;;;;;;;32.25;8.60;;;;;;;10.91;100.00;102675.56;5084208;28;20034;-50
2023/05/25 02:39:38;;;;;;;26.08;7.20;;;;;;;10.88;100.00;102678.56;5072216;28;20120;-49
2023/05/25 02:42:03;;;;;;;34.13;8.13;;;;;;;10.88;100.00;102678.56;5088213;28;20042;-45
2023/05/25 02:44:30;;;;;;;26.05;8.10;;;;;;;10.87;100.00;102682.22;5083984;28;20028;-47
2023/05/25 02:46:55;;;;;;;25.90;8.32;;;;;;;10.91;100.00;102672.88;5050964;28;20115;-47
2023/05/25 02:49:20;;;;;;;30.60;8.07;;;;;;;10.88;100.00;102674.00;5059871;28;20432;-48
2023/05/25 02:51:46;;;;;;;27.60;8.75;;;;;;;10.87;100.00;102668.75;5087495;28;20035;-46
2023/05/25 02:54:11;;;;;;;23.25;8.32;;;;;;;10.79;100.00;102674.81;5085119;28;20036;-51
2023/05/25 02:56:36;;;;;;;28.27;6.93;;;;;;;10.77;100.00;102682.22;5072132;28;20644;-45
2023/05/25 02:59:02;;;;;;;26.75;8.05;;;;;;;10.78;100.00;102681.22;5082669;28;20032;-47
2023/05/25 03:01:29;;;;;;;26.88;8.40;;;;;;;10.74;100.00;102688.72;5074880;28;20048;-47
2023/05/25 03:03:55;;;;;;;31.60;8.23;;;;;;;10.78;100.00;102683.91;5084133;28;20070;-47
2023/05/25 03:06:21;;;;;;;30.05;7.85;;;;;;;10.81;100.00;102686.31;5082622;28;20036;-47
2023/05/25 03:08:47;;;;;;;23.00;8.15;;;;;;;10.81;100.00;102689.00;5078193;28;20173;-47
2023/05/25 03:11:13;;;;;;;25.02;7.47;;;;;;;10.83;100.00;102686.19;5090116;28;20589;-44
2023/05/25 03:13:38;;;;;;;27.98;8.13;;;;;;;10.79;100.00;102679.38;5083959;28;20048;-48
2023/05/25 03:16:03;;;;;;;28.80;8.60;;;;;;;10.78;100.00;102683.91;5084546;28;20020;-47
2023/05/25 03:18:29;;;;;;;29.88;7.65;;;;;;;10.74;100.00;102686.03;5079418;28;20067;-48
2023/05/25 03:20:54;;;;;;;21.48;8.10;;;;;;;10.73;100.00;102697.78;5072435;28;20032;-45
2023/05/25 03:23:20;;;;;;;23.00;7.88;;;;;;;10.68;100.00;102691.94;5072290;28;20104;-47
2023/05/25 03:25:45;;;;;;;26.13;8.82;;;;;;;10.65;100.00;102692.22;5073420;28;20032;-46
2023/05/25 03:28:11;;;;;;;27.63;8.32;;;;;;;10.66;100.00;102696.63;5072991;28;20025;-49
2023/05/25 03:30:36;;;;;;;27.83;7.78;;;;;;;10.66;100.00;102702.00;5081008;28;20043;-46
2023/05/25 03:33:02;;;;;;;33.42;8.57;;;;;;;10.71;100.00;102699.75;5082179;28;20097;-43
2023/05/25 03:35:27;;;;;;;28.15;9.00;;;;;;;10.72;100.00;102701.47;5079161;28;20036;-44
2023/05/25 03:37:52;;;;;;;24.08;7.75;;;;;;;10.69;100.00;102696.38;5077993;28;20178;-46
2023/05/25 03:40:18;;;;;;;38.08;9.15;;;;;;;10.67;100.00;102698.34;5074422;28;20036;-44
2023/05/25 03:42:43;;;;;;;26.90;8.27;;;;;;;10.64;100.00;102701.31;5090848;28;20278;-46
2023/05/25 03:45:09;;;;;;;31.17;8.95;;;;;;;10.62;100.00;102689.81;5089995;28;20111;-49
2023/05/25 03:47:35;;;;;;;24.38;8.43;;;;;;;10.64;100.00;102704.00;5092163;28;20062;-45
2023/05/25 03:50:03;;;;;;;25.38;8.98;;;;;;;10.64;100.00;102703.16;5087529;28;20453;-46
2023/05/25 03:52:28;;;;;;;;;;;;;;;10.63;100.00;102713.03;5070412;28;20031;-46
2023/05/25 03:54:54;;;;;;;29.70;8.85;;;;;;;10.66;100.00;102712.78;5054143;28;19916;-46
2023/05/25 03:57:20;;;;;;;29.75;8.45;;;;;;;10.73;100.00;102719.31;5077482;28;20029;-47
2023/05/25 03:59:45;;;;;;;26.67;8.48;;;;;;;10.71;100.00;102715.06;5075185;28;20479;-48
2023/05/25 04:02:11;;;;;;;27.27;9.20;;;;;;;10.76;100.00;102719.03;5070196;28;20478;-48
2023/05/25 04:04:40;;;;;;;30.60;8.95;;;;;;;10.75;100.00;102711.97;5069561;28;20027;-46
2023/05/25 04:07:06;;;;;;;32.15;8.98;;;;;;;10.79;100.00;102711.69;5088372;28;20097;-47
2023/05/25 04:09:32;;;;;;;30.45;9.85;;;;;;;10.81;100.00;102721.34;5079730;28;20190;-48
2023/05/25 04:11:57;;;;;;;23.58;8.77;;;;;;;10.81;100.00;102720.50;5071750;28;20150;-46
2023/05/25 04:14:22;;;;;;;26.70;8.93;;;;;;;10.84;100.00;102717.50;5072875;28;20147;-46
2023/05/25 04:16:48;;;;;;;27.23;8.82;;;;;;;10.90;100.00;102719.66;5087808;28;20502;-45
2023/05/25 04:19:13;;;;;;;23.88;9.63;;;;;;;10.92;100.00;102729.28;5090590;28;20679;-44
2023/05/25 04:21:39;;;;;;;27.55;9.50;;;;;;;10.98;100.00;102722.53;5091632;28;20379;-44
2023/05/25 04:24:05;;;;;;;30.33;9.80;;;;;;;11.04;100.00;102723.81;5090841;28;20024;-46
2023/05/25 04:26:30;;;;;;;34.58;9.70;;;;;;;11.10;100.00;102726.78;5074840;28;20398;-46
2023/05/25 04:28:57;;;;;;;30.52;9.13;;;;;;;11.15;100.00;102726.38;5069940;28;20021;-49
2023/05/25 04:31:25;;;;;;;31.65;10.00;;;;;;;11.21;100.00;102726.66;5053244;28;20085;-44
2023/05/25 04:33:51;;;;;;;25.15;9.48;;;;;;;11.29;100.00;102720.56;5084357;28;20055;-49
2023/05/25 04:36:16;;;;;;;23.60;9.70;;;;;;;11.33;100.00;102718.44;5090807;28;20513;-48
2023/05/25 04:38:46;;;;;;;32.97;10.20;;;;;;;11.34;100.00;102726.38;5091471;28;20016;-45
2023/05/25 04:41:12;;;;;;;21.10;9.60;;;;;;;11.47;100.00;102728.81;5089529;28;20427;-47
2023/05/25 04:43:38;;;;;;;30.10;10.23;;;;;;;11.50;100.00;102733.91;5108627;28;20038;-45
2023/05/25 04:46:04;;;;;;;26.52;10.10;;;;;;;11.54;100.00;102746.13;5075349;28;20437;-48
2023/05/25 04:48:32;;;;;;;30.33;10.15;;;;;;;11.67;100.00;102745.00;5075205;28;20061;-46
2023/05/25 04:51:01;;;;;;;29.63;9.88;;;;;;;11.70;100.00;102729.38;5086168;28;20032;-45
2023/05/25 04:53:27;;;;;;;21.55;8.70;;;;;;;11.77;100.00;102732.34;5075503;28;20267;-46
2023/05/25 04:55:54;;;;;;;39.10;11.07;;;;;;;11.84;100.00;102746.97;5080969;28;20036;-46
2023/05/25 04:58:19;;;;;;;33.45;10.98;;;;;;;11.93;100.00;102740.75;5069174;28;20474;-45
2023/05/25 05:00:46;;;;;;;35.17;10.75;;;;;;;11.95;100.00;102738.72;5071621;28;20043;-46
2023/05/25 05:03:12;;;;;;;29.45;9.82;;;;;;;12.02;100.00;102739.88;5070779;28;20028;-49
2023/05/25 05:05:37;;;;;;;29.95;10.00;;;;;;;12.10;100.00;102746.41;5071072;28;20032;-48
2023/05/25 05:08:03;;;;;;;24.35;10.10;;;;;;;12.19;100.00;102750.91;5070767;28;20078;-44
2023/05/25 05:10:28;;;;;;;36.13;10.68;;;;;;;12.24;100.00;102748.63;5069363;28;20039;-49
2023/05/25 05:12:53;;;;;;;30.77;9.65;;;;;;;12.32;100.00;102748.72;5071761;28;20036;-44
2023/05/25 05:15:19;;;;;;;24.13;10.18;;;;;;;12.43;100.00;102748.56;5079701;28;20521;-44
2023/05/25 05:17:45;;;;;;;31.95;10.23;;;;;;;12.55;100.00;102753.78;5071606;28;20066;-46
2023/05/25 05:20:11;;;;;;;27.55;10.75;;;;;;;12.68;100.00;102751.59;5071247;28;20048;-47
2023/05/25 05:22:36;;;;;;;35.90;11.13;;;;;;;12.77;100.00;102756.13;5071504;28;20033;-46
2023/05/25 05:25:02;;;;;;;33.15;10.90;;;;;;;12.87;100.00;102756.91;5069158;28;20016;-46
2023/05/25 05:27:27;;;;;;;28.58;9.90;;;;;;;12.98;100.00;102752.28;5087287;28;20032;-46
2023/05/25 05:29:53;;;;;;;31.95;9.48;;;;;;;13.08;100.00;102747.69;5090651;28;20032;-47
2023/05/25 05:32:18;;;;;;;35.05;10.68;;;;;;;13.15;100.00;102743.38;5086748;28;20036;-45
2023/05/25 05:34:43;;;;;;;36.75;10.40;;;;;;;13.21;100.00;102742.75;5070339;28;20029;-47
2023/05/25 05:37:09;;;;;;;23.25;9.20;;;;;;;13.27;100.00;102746.72;5076861;28;20035;-47
2023/05/25 05:39:34;;;;;;;27.02;9.90;;;;;;;13.34;100.00;102743.25;5070860;28;20024;-49
2023/05/25 05:42:00;;;;;;;29.42;9.18;;;;;;;13.40;100.00;102747.19;5079084;28;20111;-48
2023/05/25 05:44:25;;;;;;;25.40;9.27;;;;;;;13.52;100.00;102755.94;5091520;28;20121;-46
2023/05/25 05:46:51;;;;;;;32.45;9.60;;;;;;;13.66;100.00;102754.53;5098735;28;20087;-49
2023/05/25 05:49:16;;;;;;;28.52;10.30;;;;;;;13.75;100.00;102765.28;5090266;28;20450;-46
2023/05/25 05:51:42;;;;;;;29.95;10.18;;;;;;;13.88;100.00;102755.94;5078204;28;20120;-46
2023/05/25 05:54:07;;;;;;;27.35;9.95;;;;;;;13.92;100.00;102751.88;5069875;28;20056;-49
2023/05/25 05:56:32;;;;;;;23.35;8.25;;;;;;;13.94;100.00;102756.13;5070353;28;20024;-45
2023/05/25 05:58:58;;;;;;;31.42;9.23;;;;;;;14.02;100.00;102768.88;5080272;28;20115;-47
2023/05/25 06:01:24;;;;;;;23.90;8.35;;;;;;;14.15;100.00;102769.31;5081844;28;20063;-49
2023/05/25 06:03:51;;;;;;;29.20;9.27;;;;;;;14.27;100.00;102772.63;5085348;28;20044;-47
2023/05/25 06:06:16;;;;;;;29.92;9.85;;;;;;;14.48;100.00;102764.09;5078825;28;20063;-47
2023/05/25 06:08:42;;;;;;;33.42;8.82;;;;;;;14.61;100.00;102770.00;5089651;28;20067;-48
2023/05/25 06:11:07;;;;;;;24.05;7.85;;;;;;;14.84;100.00;102763.97;5080426;28;20093;-46
2023/05/25 06:13:33;;;;;;;24.65;7.80;;;;;;;15.08;100.00;102755.09;5070664;28;20024;-52
2023/05/25 06:15:58;;;;;;;26.40;8.73;;;;;;;15.35;100.00;102768.38;5072197;28;20105;-51
2023/05/25 06:18:23;;;;;;;25.25;8.07;;;;;;;15.75;100.00;102763.22;5070147;28;20094;-46
2023/05/25 06:20:49;;;;;;;22.65;7.15;;;;;;;16.07;100.00;102762.34;5082451;28;20039;-46
2023/05/25 06:23:14;;;;;;;20.17;7.63;;;;;;;15.91;100.00;102767.78;5090978;28;20115;-47
2023/05/25 06:25:40;;;;;;;19.95;7.55;;;;;;;15.70;100.00;102768.28;5090553;28;20040;-47
2023/05/25 06:28:05;;;;;;;28.27;7.57;;;;;;;15.46;100.00;102764.50;5091152;28;20161;-48
2023/05/25 06:30:31;;;;;;;28.83;7.88;;;;;;;15.19;100.00;102768.31;5088851;28;20027;-45
2023/05/25 06:32:56;;;;;;;22.45;8.32;;;;;;;14.95;100.00;102770.97;5090149;28;20047;-44
2023/05/25 06:35:21;;;;;;;19.48;7.78;;;;;;;14.82;100.00;102771.41;5089832;28;20035;-45
2023/05/25 06:37:47;;;;;;;20.08;7.55;;;;;;;14.64;100.00;102775.09;5087672;28;20016;-48
2023/05/25 06:40:14;;;;;;;27.90;8.00;;;;;;;14.56;100.00;102772.34;5077936;28;20444;-49
2023/05/25 06:42:40;;;;;;;25.85;7.85;;;;;;;14.42;100.00;102776.44;5071561;28;20511;-48
2023/05/25 06:45:06;;;;;;;28.92;9.27;;;;;;;14.33;100.00;102776.56;5078262;28;20056;-48
2023/05/25 06:47:32;;;;;;;24.25;6.95;;;;;;;14.40;100.00;102778.47;5076216;28;20491;-47
2023/05/25 06:49:58;;;;;;;27.30;7.72;;;;;;;14.37;100.00;102783.34;5085959;28;20020;-48
2023/05/25 06:52:26;;;;;;;25.38;8.10;;;;;;;14.39;100.00;102786.75;5072882;28;20138;-45
2023/05/25 06:54:52;;;;;;;19.98;7.40;;;;;;;14.49;100.00;102787.50;5073635;28;20041;-45
2023/05/25 06:57:17;;;;;;;15.73;6.57;;;;;;;14.69;100.00;102783.59;5084070;28;20496;-47
2023/05/25 06:59:42;;;;;;;19.63;6.30;;;;;;;14.86;100.00;102789.06;5084543;28;20051;-50
2023/05/25 07:02:08;;;;;;;20.40;6.40;;;;;;;14.91;100.00;102776.72;5072444;28;20146;-49
2023/05/25 07:04:33;;;;;;;26.17;6.00;;;;;;;14.86;100.00;102783.66;5073761;28;20036;-49
2023/05/25 07:06:58;;;;;;;17.55;6.25;;;;;;;14.83;100.00;102795.66;5073700;28;20028;-45
2023/05/25 07:09:24;;;;;;;16.65;5.57;;;;;;;14.69;100.00;102798.97;5077773;28;20067;-49
2023/05/25 07:11:49;;;;;;;26.38;6.18;;;;;;;14.71;100.00;102796.94;5088534;28;20043;-47
2023/05/25 07:14:16;;;;;;;17.10;5.40;;;;;;;14.73;100.00;102794.09;5091333;28;20028;-48
2023/05/25 07:16:43;;;;;;;18.92;5.80;;;;;;;14.68;100.00;102803.53;5078076;28;20025;-46
2023/05/25 07:19:10;;;;;;;19.67;5.40;;;;;;;14.66;100.00;102805.56;5074495;28;20032;-48
2023/05/25 07:21:35;;;;;;;20.20;6.10;;;;;;;14.65;100.00;102798.44;5088758;28;20025;-45
2023/05/25 07:24:01;;;;;;;16.27;4.78;;;;;;;14.63;100.00;102805.88;5094172;28;20028;-47
2023/05/25 07:26:27;;;;;;;13.65;4.43;;;;;;;14.69;100.00;102807.97;5091489;28;20036;-45
2023/05/25 07:28:52;;;;;;;12.90;4.55;;;;;;;14.67;100.00;102807.28;5092582;28;20074;-48
2023/05/25 07:31:19;;;;;;;17.17;4.88;;;;;;;14.69;100.00;102807.09;5073211;28;20437;-45
2023/05/25 07:33:44;;;;;;;14.10;5.22;;;;;;;14.75;100.00;102808.34;5089715;28;20166;-46
2023/05/25 07:36:10;;;;;;;22.27;5.40;;;;;;;14.80;100.00;102811.41;5093495;28;20111;-49
2023/05/25 07:38:35;;;;;;;19.45;6.55;;;;;;;14.85;100.00;102815.34;5093677;28;20084;-46
2023/05/25 07:41:01;;;;;;;16.17;5.28;;;;;;;15.03;100.00;102806.25;5092893;28;20036;-46
2023/05/25 07:43:26;;;;;;;18.27;5.63;;;;;;;15.14;100.00;102809.53;5094047;28;20432;-46
2023/05/25 07:45:52;;;;;;;11.50;5.10;;;;;;;15.23;100.00;102810.38;5094025;28;20028;-46
2023/05/25 07:48:18;;;;;;;11.45;4.97;;;;;;;15.41;100.00;102818.41;5092337;28;20028;-46
2023/05/25 07:50:43;;;;;;;13.63;5.60;;;;;;;15.74;100.00;102818.50;5093563;28;20032;-46
2023/05/25 07:53:09;;;;;;;14.15;5.22;;;;;;;16.04;100.00;102813.44;5093100;28;20450;-46
2023/05/25 07:55:34;;;;;;;23.30;5.50;;;;;;;16.10;100.00;102815.47;5093655;28;20052;-46
2023/05/25 07:57:59;;;;;;;12.07;5.25;;;;;;;16.11;100.00;102818.00;5093475;28;20024;-46
2023/05/25 08:00:25;;;;;;;15.10;4.80;;;;;;;16.14;100.00;102822.25;5093352;28;20028;-45
2023/05/25 08:02:50;;;;;;;13.38;4.95;;;;;;;16.11;100.00;102828.03;5091597;28;20032;-46
2023/05/25 08:05:15;;;;;;;12.65;4.72;;;;;;;16.14;100.00;102828.56;5093505;28;20494;-46
2023/05/25 08:07:41;;;;;;;13.98;4.85;;;;;;;16.14;100.00;102823.13;5093504;28;20032;-46
2023/05/25 08:10:07;;;;;;;13.88;4.68;;;;;;;16.14;100.00;102831.25;5093147;28;20066;-45
2023/05/25 08:12:33;;;;;;;11.40;5.00;;;;;;;16.18;100.00;102832.59;5092079;28;20032;-47
2023/05/25 08:14:58;;;;;;;19.27;4.95;;;;;;;16.14;100.00;102827.69;5093406;28;20028;-46
2023/05/25 08:17:24;;;;;;;20.77;7.97;;;;;;;16.20;100.00;102838.72;5093272;28;20039;-46
2023/05/25 08:19:49;;;;;;;14.88;5.63;;;;;;;16.21;100.00;102837.69;5093170;28;20107;-47
2023/05/25 08:22:15;;;;;;;16.05;5.10;;;;;;;16.45;100.00;102838.69;5093151;28;20042;-46
2023/05/25 08:24:40;;;;;;;13.82;5.20;;;;;;;16.93;100.00;102833.34;5093423;28;20028;-47
2023/05/25 08:27:06;;;;;;;20.17;5.15;;;;;;;17.86;100.00;102837.97;5091630;28;20074;-46
2023/05/25 08:29:31;;;;;;;11.75;4.75;;;;;;;17.97;100.00;102838.38;5092856;28;20028;-47
2023/05/25 08:31:56;;;;;;;10.43;4.63;;;;;;;17.84;100.00;102832.69;5093015;28;20032;-44
2023/05/25 08:34:22;;;;;;;10.80;4.05;;;;;;;17.69;100.00;102840.78;5093025;28;20112;-46
2023/05/25 08:36:47;;;;;;;13.40;4.72;;;;;;;17.47;100.00;102844.31;5092849;28;20522;-47
2023/05/25 08:39:14;;;;;;;16.02;4.45;;;;;;;17.28;100.00;102854.63;5092514;28;20063;-46
2023/05/25 08:41:43;;;;;;;12.63;4.97;;;;;;;16.94;100.00;102848.66;5093429;28;20028;-47
2023/05/25 08:44:10;;;;;;;15.02;4.97;;;;;;;16.74;100.00;102857.16;5092593;28;20024;-45
2023/05/25 08:46:36;;;;;;;13.73;4.15;;;;;;;16.53;100.00;102863.13;5092837;28;20036;-49
2023/05/25 08:49:09;;;;;;;9.95;4.45;;;;;;;16.23;100.00;102851.13;5093000;28;20024;-51
2023/05/25 08:51:36;;;;;;;8.30;4.28;;;;;;;16.01;100.00;102856.22;5092514;28;20024;-45
2023/05/25 08:54:07;;;;;;;13.95;5.25;;;;;;;15.74;100.00;102859.22;5092428;28;20481;-45
2023/05/25 08:56:36;;;;;;;10.50;4.70;;;;;;;15.45;100.00;102865.91;5091056;28;20035;-46
2023/05/25 08:59:10;;;;;;;12.63;4.90;;;;;;;15.18;100.00;102863.44;5091105;28;20479;-47
2023/05/25 09:01:42;;;;;;;11.23;5.22;;;;;;;15.04;100.00;102863.03;5092425;28;20048;-47
2023/05/25 09:04:08;;;;;;;13.10;4.90;;;;;;;14.97;100.00;102870.13;5090926;28;20028;-45
2023/05/25 09:06:35;;;;;;;16.35;4.70;;;;;;;14.93;100.00;102871.47;5090063;28;20030;-45
2023/05/25 09:09:03;;;;;;;11.70;4.80;;;;;;;14.89;100.00;102875.50;5092553;28;20051;-45
2023/05/25 09:11:28;;;;;;;;;;;;;;;14.84;100.00;102872.41;5092292;28;20020;-46
2023/05/25 09:13:54;;;;;;;13.80;4.85;;;;;;;14.78;100.00;102873.06;5090834;28;20428;-48
2023/05/25 09:16:21;;;;;;;14.75;5.13;;;;;;;14.82;100.00;102871.72;5090450;28;20509;-46
2023/05/25 09:18:47;;;;;;;19.77;5.05;;;;;;;14.80;100.00;102880.03;5090330;28;20110;-47
2023/05/25 09:21:12;;;;;;;13.48;5.28;;;;;;;14.75;100.00;102870.69;5091985;28;20479;-46
2023/05/25 09:23:37;;;;;;;11.45;5.18;;;;;;;14.70;100.00;102877.41;5091694;28;20027;-46
2023/05/25 09:26:03;;;;;;;15.30;5.88;;;;;;;14.78;100.00;102873.06;5090380;28;20019;-46
2023/05/25 09:28:28;;;;;;;12.55;4.72;;;;;;;14.83;100.00;102870.72;5091796;28;20063;-45
2023/05/25 09:30:54;;;;;;;14.80;4.88;;;;;;;14.95;100.00;102868.56;5091638;28;20073;-47
2023/05/25 09:33:19;;;;;;;13.77;5.03;;;;;;;15.03;100.00;102876.75;5091503;28;20051;-50
2023/05/25 09:35:46;;;;;;;12.73;5.18;;;;;;;15.12;100.00;102870.38;5091863;28;20354;-44
2023/05/25 09:38:14;;;;;;;17.83;5.70;;;;;;;15.19;100.00;102875.97;5091715;28;20065;-46
2023/05/25 09:40:39;;;;;;;14.10;4.70;;;;;;;15.29;100.00;102865.84;5090203;28;20435;-49
2023/05/25 09:43:05;;;;;;;16.58;4.88;;;;;;;15.43;100.00;102867.94;5091507;28;20032;-46
2023/05/25 09:45:31;;;;;;;12.18;4.60;;;;;;;15.50;100.00;102868.13;5091488;28;20030;-45
2023/05/25 09:47:57;;;;;;;19.20;4.75;;;;;;;15.58;100.00;102862.72;5091739;28;20012;-47
2023/05/25 09:50:22;;;;;;;12.57;4.10;;;;;;;15.81;100.00;102871.13;5091592;28;20629;-47
2023/05/25 09:52:48;;;;;;;13.88;4.68;;;;;;;15.92;100.00;102861.81;5091472;28;20029;-49
2023/05/25 09:55:14;;;;;;;19.15;5.63;;;;;;;16.18;100.00;102867.09;5091408;28;20048;-47
2023/05/25 09:57:40;;;;;;;17.23;5.32;;;;;;;16.27;100.00;102873.34;5091694;28;20070;-47
2023/05/25 10:00:07;;;;;;;23.92;5.82;;;;;;;16.49;100.00;102879.97;5090098;28;20067;-48
2023/05/25 10:02:32;;;;;;;20.60;4.57;;;;;;;16.70;100.00;102866.69;5091319;28;20020;-45
2023/05/25 10:04:58;;;;;;;16.90;5.32;;;;;;;16.75;100.00;102871.63;5091511;28;20277;-51
2023/05/25 10:07:25;;;;;;;25.67;6.10;;;;;;;16.55;100.00;102871.13;5091594;28;20111;-48
2023/05/25 10:09:52;;;;;;;23.35;5.93;;;;;;;16.33;100.00;102873.53;5089925;28;20016;-47
2023/05/25 10:12:19;;;;;;;20.35;5.65;;;;;;;16.37;100.00;102877.59;5089567;28;20024;-48
2023/05/25 10:14:45;;;;;;;18.40;5.82;;;;;;;16.28;100.00;102884.06;5091234;28;20028;-49
2023/05/25 10:17:10;;;;;;;20.27;5.15;;;;;;;16.19;100.00;102880.50;5075278;28;20036;-46
2023/05/25 10:19:44;;;;;;;14.80;4.80;;;;;;;16.11;100.00;102883.19;5094304;28;20024;-46
2023/05/25 10:22:22;;;;;;;21.13;5.90;;;;;;;16.05;100.00;102880.31;5095639;28;20569;-45
2023/05/25 10:24:58;;;;;;;14.55;4.53;;;;;;;16.06;100.00;102880.16;5095516;28;20086;-47
2023/05/25 10:27:35;;;;;;;18.13;4.68;;;;;;;16.04;100.00;102881.34;5094211;28;20127;-46
2023/05/25 10:30:01;;;;;;;21.20;5.27;;;;;;;16.11;100.00;102882.34;5093989;28;20032;-46
2023/05/25 10:32:27;;;;;;;15.00;5.03;;;;;;;16.10;100.00;102880.66;5095594;28;20042;-45
2023/05/25 10:34:52;;;;;;;15.60;5.22;;;;;;;16.00;100.00;102884.38;5094125;28;20469;-46
2023/05/25 10:37:18;;;;;;;16.60;5.10;;;;;;;15.84;100.00;102887.06;5093917;28;20035;-46
2023/05/25 10:39:44;;;;;;;16.25;4.50;;;;;;;15.76;100.00;102892.50;5093528;28;20103;-46
2023/05/25 10:42:11;;;;;;;18.20;5.05;;;;;;;15.65;100.00;102898.22;5094108;28;20038;-47
2023/05/25 10:44:37;;;;;;;14.27;4.93;;;;;;;15.63;100.00;102892.09;5095480;28;20480;-44
2023/05/25 10:47:03;;;;;;;15.30;5.78;;;;;;;15.67;100.00;102898.91;5093398;28;20055;-46
2023/05/25 10:49:33;;;;;;;20.80;5.93;;;;;;;15.63;100.00;102900.22;5059768;28;20723;-44
2023/05/25 10:52:00;;;;;;;13.45;5.10;;;;;;;15.59;100.00;102892.41;5095039;28;20043;-47
2023/05/25 10:54:30;;;;;;;21.02;5.65;;;;;;;15.58;100.00;102893.41;5094938;28;20650;-47
2023/05/25 10:57:08;;;;;;;20.23;6.05;;;;;;;15.61;100.00;102900.38;5095016;28;20522;-47
2023/05/25 10:59:34;;;;;;;22.63;5.68;;;;;;;15.63;100.00;102900.22;5093198;28;20032;-45
2023/05/25 11:02:05;;;;;;;22.90;6.22;;;;;;;15.70;100.00;102901.31;5094827;28;20405;-45
2023/05/25 11:04:35;;;;;;;17.05;5.68;;;;;;;15.87;100.00;102902.19;5094802;28;20039;-45
2023/05/25 11:07:01;;;;;;;28.15;6.50;;;;;;;15.90;100.00;102891.81;5077479;28;20123;-47